createdAt,value
2022-08-05T00:00:18.491Z,3.35
2022-08-05T00:02:51.512Z,3.90
2022-08-05T00:05:27.484Z,3.53
2022-08-05T00:08:32.603Z,3.60
2022-08-05T00:11:00.881Z,3.63
2022-08-05T00:13:39.608Z,3.70
2022-08-05T00:16:12.661Z,3.38
2022-08-05T00:18:42.326Z,3.70
2022-08-05T00:21:10.935Z,3.80
2022-08-05T00:23:46.251Z,3.20
2022-08-05T00:26:22.043Z,3.67
2022-08-05T00:28:51.841Z,3.95
2022-08-05T00:31:54.085Z,3.35
2022-08-05T00:34:53.951Z,2.75
2022-08-05T00:37:12.782Z,3.75
2022-08-05T00:39:44.187Z,3.42
2022-08-05T00:42:32.913Z,2.35
2022-08-05T00:45:02.697Z,2.05
2022-08-05T00:47:30.492Z,3.47
2022-08-05T00:50:18.599Z,3.25
2022-08-05T00:52:48.843Z,3.20
2022-08-05T00:55:16.591Z,3.20
2022-08-05T00:57:58.488Z,3.45
2022-08-05T01:00:28.971Z,3.10
2022-08-05T01:02:59.757Z,3.10
2022-08-05T01:05:28.191Z,2.90
2022-08-05T01:08:41.930Z,3.15
2022-08-05T01:10:51.645Z,4.25
2022-08-05T01:13:27.394Z,3.33
2022-08-05T01:16:26.529Z,3.35
2022-08-05T01:19:00.878Z,3.55
2022-08-05T01:22:18.695Z,2.80
2022-08-05T01:25:04.631Z,3.03
2022-08-05T01:28:03.782Z,3.22
2022-08-05T01:30:37.526Z,2.72
2022-08-05T01:35:52.147Z,2.90
2022-08-05T01:38:27.229Z,3.80
2022-08-05T01:40:59.710Z,2.90
2022-08-05T01:43:29.635Z,3.10
2022-08-05T01:46:07.493Z,3.13
2022-08-05T01:48:49.548Z,2.85
2022-08-05T01:51:19.904Z,2.75
2022-08-05T01:53:57.361Z,3.33
2022-08-05T01:58:13.576Z,3.10
2022-08-05T01:59:24.082Z,3.17
2022-08-05T02:01:57.724Z,2.92
2022-08-05T02:04:29.936Z,2.92
2022-08-05T02:06:59.808Z,3.28
2022-08-05T02:09:31.633Z,2.78
2022-08-05T02:12:06.722Z,4.55
2022-08-05T02:14:47.092Z,3.33
2022-08-05T02:18:28.423Z,3.30
2022-08-05T02:20:21.241Z,3.40
2022-08-05T02:22:57.959Z,3.15
2022-08-05T02:25:33.049Z,3.30
2022-08-05T02:28:04.310Z,3.60
2022-08-05T02:30:42.676Z,3.45
2022-08-05T02:33:24.629Z,3.53
2022-08-05T02:36:04.575Z,2.95
2022-08-05T02:38:35.192Z,3.83
2022-08-05T02:41:14.732Z,3.42
2022-08-05T02:44:02.774Z,3.50
2022-08-05T02:46:53.198Z,3.80
2022-08-05T02:49:26.722Z,3.08
2022-08-05T02:52:02.840Z,4.93
2022-08-05T02:54:36.483Z,3.45
2022-08-05T02:57:10.365Z,3.40
2022-08-05T02:59:56.143Z,3.30
2022-08-05T03:02:32.727Z,3.13
2022-08-05T03:05:02.148Z,3.70
2022-08-05T03:08:00.157Z,3.67
2022-08-05T03:10:24.571Z,4.18
2022-08-05T03:12:54.010Z,4.37
2022-08-05T03:15:23.722Z,3.67
2022-08-05T03:17:55.962Z,4.15
2022-08-05T03:20:25.622Z,4.03
2022-08-05T03:22:57.102Z,3.88
2022-08-05T03:25:32.711Z,4.70
2022-08-05T03:28:13.979Z,3.45
2022-08-05T03:30:42.523Z,4.00
2022-08-05T03:33:12.123Z,5.18
2022-08-05T03:35:41.829Z,4.72
2022-08-05T03:38:12.162Z,4.40
2022-08-05T03:40:41.733Z,3.85
2022-08-05T03:43:58.307Z,4.45
2022-08-05T03:46:01.705Z,3.80
2022-08-05T03:48:35.130Z,4.60
2022-08-05T03:52:49.112Z,4.32
2022-08-05T03:55:52.077Z,4.20
2022-08-05T03:56:58.844Z,5.55
2022-08-05T03:59:46.753Z,4.70
2022-08-05T04:02:38.744Z,4.40
2022-08-05T04:05:10.341Z,4.32
2022-08-05T04:07:57.287Z,3.80
2022-08-05T04:10:37.629Z,4.00
2022-08-05T04:13:07.448Z,4.35
2022-08-05T04:15:36.555Z,4.18
2022-08-05T04:18:07.042Z,3.60
2022-08-05T04:20:37.221Z,3.72
2022-08-05T04:23:05.324Z,4.25
2022-08-05T04:25:56.789Z,3.97
2022-08-05T04:28:30.610Z,4.95
2022-08-05T04:31:00.821Z,4.50
2022-08-05T04:33:54.676Z,5.10
2022-08-05T04:36:45.319Z,4.32
2022-08-05T04:39:07.812Z,4.53
2022-08-05T04:41:37.262Z,4.88
2022-08-05T04:44:09.559Z,5.45
2022-08-05T04:46:38.572Z,5.22
2022-08-05T04:49:14.852Z,4.45
2022-08-05T04:51:45.042Z,5.25
2022-08-05T04:54:14.631Z,5.32
2022-08-05T04:56:43.604Z,5.85
2022-08-05T04:59:22.315Z,5.63
2022-08-05T05:02:08.197Z,5.47
2022-08-05T05:04:43.906Z,4.47
2022-08-05T05:07:17.312Z,5.95
2022-08-05T05:09:45.214Z,5.88
2022-08-05T05:12:13.006Z,5.28
2022-08-05T05:14:50.662Z,4.47
2022-08-05T05:17:23.953Z,5.97
2022-08-05T05:19:56.646Z,5.68
2022-08-05T05:22:26.894Z,6.07
2022-08-05T05:25:00.311Z,6.93
2022-08-05T05:27:44.434Z,5.82
2022-08-05T05:30:31.542Z,6.35
2022-08-05T05:33:03.802Z,5.93
2022-08-05T05:35:45.245Z,5.65
2022-08-05T05:38:15.038Z,4.55
2022-08-05T05:40:51.843Z,6.00
2022-08-05T05:43:21.790Z,4.60
2022-08-05T05:45:56.033Z,4.50
2022-08-05T05:48:27.483Z,4.90
2022-08-05T05:50:55.513Z,4.20
2022-08-05T05:53:24.792Z,4.15
2022-08-05T05:56:01.217Z,4.18
2022-08-05T05:58:32.289Z,4.20
2022-08-05T06:01:02.405Z,4.05
2022-08-05T06:04:01.894Z,4.72
2022-08-05T06:06:33.009Z,5.40
2022-08-05T06:09:04.826Z,4.20
2022-08-05T06:11:32.781Z,4.47
2022-08-05T06:14:00.981Z,4.78
2022-08-05T06:16:32.744Z,4.25
2022-08-05T06:19:07.442Z,4.50
2022-08-05T06:21:38.794Z,4.18
2022-08-05T06:24:12.847Z,3.80
2022-08-05T06:26:51.127Z,3.80
2022-08-05T06:29:42.878Z,4.13
2022-08-05T06:32:20.886Z,4.05
2022-08-05T06:34:56.107Z,3.92
2022-08-05T06:37:56.137Z,3.72
2022-08-05T06:40:20.901Z,4.65
2022-08-05T06:42:52.139Z,4.45
2022-08-05T06:45:44.981Z,4.57
2022-08-05T06:48:36.384Z,4.03
2022-08-05T06:50:58.001Z,3.50
2022-08-05T06:53:28.212Z,3.60
2022-08-05T06:55:59.221Z,3.40
2022-08-05T06:58:29.645Z,3.63
2022-08-05T07:01:03.504Z,3.10
2022-08-05T07:03:33.211Z,3.42
2022-08-05T07:06:05.457Z,3.13
2022-08-05T07:08:34.194Z,3.57
2022-08-05T07:11:04.840Z,3.03
2022-08-05T07:13:59.344Z,3.33
2022-08-05T07:18:08.486Z,3.40
2022-08-05T07:22:27.901Z,3.25
2022-08-05T07:24:58.651Z,3.05
2022-08-05T07:27:58.693Z,2.80
2022-08-05T07:30:25.483Z,3.28
2022-08-05T07:32:56.201Z,3.20
2022-08-05T07:35:56.037Z,2.55
2022-08-05T07:38:32.850Z,2.55
2022-08-05T07:41:17.197Z,2.33
2022-08-05T07:43:51.305Z,2.90
2022-08-05T07:46:25.458Z,2.35
2022-08-05T07:49:02.440Z,3.40
2022-08-05T07:51:37.044Z,3.17
2022-08-05T07:54:08.305Z,3.60
2022-08-05T07:57:01.343Z,3.30
2022-08-05T07:59:38.052Z,3.08
2022-08-05T08:02:15.502Z,2.60
2022-08-05T08:04:46.709Z,3.20
2022-08-05T08:07:15.374Z,2.67
2022-08-05T08:09:43.722Z,3.28
2022-08-05T08:12:35.014Z,3.03
2022-08-05T08:15:03.655Z,2.83
2022-08-05T08:17:32.940Z,3.10
2022-08-05T08:20:44.402Z,2.65
2022-08-05T08:22:53.419Z,3.08
2022-08-05T08:28:18.185Z,2.40
2022-08-05T08:30:49.653Z,2.47
2022-08-05T08:33:17.813Z,2.63
2022-08-05T08:35:52.982Z,2.00
2022-08-05T08:38:35.309Z,2.10
2022-08-05T08:41:06.733Z,2.30
2022-08-05T08:45:17.743Z,2.70
2022-08-05T08:46:28.441Z,2.45
2022-08-05T08:49:06.402Z,2.22
2022-08-05T08:52:03.069Z,2.50
2022-08-05T08:54:36.460Z,2.58
2022-08-05T08:57:11.290Z,2.38
2022-08-05T08:59:41.854Z,5.70
2022-08-05T09:02:19.096Z,2.72
2022-08-05T09:05:16.482Z,2.47
2022-08-05T09:07:39.776Z,2.30
2022-08-05T09:10:27.121Z,2.50
2022-08-05T09:13:04.735Z,2.33
2022-08-05T09:15:36.829Z,2.40
2022-08-05T09:18:09.156Z,2.35
2022-08-05T09:20:38.414Z,2.38
2022-08-05T09:23:18.875Z,2.38
2022-08-05T09:26:01.630Z,2.17
2022-08-05T09:28:34.213Z,2.20
2022-08-05T09:31:18.198Z,1.95
2022-08-05T09:33:54.850Z,1.88
2022-08-05T09:36:27.575Z,2.07
2022-08-05T09:39:03.019Z,2.05
2022-08-05T09:41:32.873Z,1.83
2022-08-05T09:44:06.210Z,2.10
2022-08-05T09:46:35.846Z,1.88
2022-08-05T09:49:19.047Z,2.13
2022-08-05T09:51:49.343Z,2.20
2022-08-05T09:54:21.423Z,2.20
2022-08-05T09:57:01.110Z,2.05
2022-08-05T09:59:35.067Z,2.23
2022-08-05T10:02:05.234Z,2.22
2022-08-05T10:04:40.989Z,2.00
2022-08-05T10:07:19.659Z,2.00
2022-08-05T10:10:13.806Z,1.50
2022-08-05T10:12:49.667Z,2.17
2022-08-05T10:15:25.750Z,1.90
2022-08-05T10:18:11.780Z,1.65
2022-08-05T10:20:44.617Z,1.95
2022-08-05T10:23:34.034Z,1.83
2022-08-05T10:26:08.428Z,1.90
2022-08-05T10:28:42.813Z,1.83
2022-08-05T10:32:48.155Z,2.00
2022-08-05T10:34:01.385Z,1.88
2022-08-05T10:36:33.944Z,1.90
2022-08-05T10:39:10.012Z,1.80
2022-08-05T10:41:48.244Z,2.05
2022-08-05T10:44:20.234Z,1.80
2022-08-05T10:46:50.859Z,1.70
2022-08-05T10:49:26.779Z,1.55
2022-08-05T10:52:10.343Z,1.90
2022-08-05T10:54:56.093Z,1.48
2022-08-05T10:57:31.800Z,1.73
2022-08-05T11:00:19.577Z,1.70
2022-08-05T11:03:25.119Z,1.63
2022-08-05T11:06:05.670Z,1.85
2022-08-05T11:08:37.885Z,1.40
2022-08-05T11:11:44.706Z,1.90
2022-08-05T11:17:56.819Z,1.40
2022-08-05T11:20:43.714Z,1.60
2022-08-05T11:24:05.750Z,1.58
2022-08-05T11:26:43.187Z,1.50
2022-08-05T11:29:38.104Z,1.73
2022-08-05T11:32:24.621Z,1.77
2022-08-05T11:34:54.354Z,1.70
2022-08-05T11:38:29.527Z,2.00
2022-08-05T11:41:34.996Z,2.00
2022-08-05T11:44:04.725Z,1.73
2022-08-05T11:46:37.866Z,1.90
2022-08-05T11:49:25.666Z,1.70
2022-08-05T11:51:54.282Z,1.80
2022-08-05T11:54:33.737Z,1.70
2022-08-05T11:57:07.942Z,2.00
2022-08-05T11:59:49.782Z,1.45
2022-08-05T12:02:29.947Z,1.83
2022-08-05T12:05:01.060Z,2.10
2022-08-05T12:08:09.559Z,1.98
2022-08-05T12:10:24.894Z,1.65
2022-08-05T12:13:15.470Z,2.00
2022-08-05T12:15:45.142Z,2.10
2022-08-05T12:18:20.502Z,1.60
2022-08-05T12:20:48.496Z,1.70
2022-08-05T12:23:17.176Z,1.60
2022-08-05T12:25:53.454Z,1.60
2022-08-05T12:28:39.361Z,1.55
2022-08-05T12:31:07.373Z,1.52
2022-08-05T12:33:37.006Z,1.70
2022-08-05T12:36:09.138Z,1.90
2022-08-05T12:38:39.724Z,1.63
2022-08-05T12:41:12.870Z,1.73
2022-08-05T12:43:54.890Z,1.50
2022-08-05T12:46:29.386Z,1.90
2022-08-05T12:48:59.308Z,1.70
2022-08-05T12:52:13.116Z,1.80
2022-08-05T12:54:26.541Z,1.80
2022-08-05T12:56:56.248Z,1.80
2022-08-05T12:59:27.442Z,1.70
2022-08-05T13:02:07.615Z,1.70
2022-08-05T13:04:41.837Z,1.92
2022-08-05T13:07:55.973Z,1.65
2022-08-05T13:10:12.502Z,1.50
2022-08-05T13:12:42.599Z,2.05
2022-08-05T13:15:24.494Z,1.83
2022-08-05T13:18:08.457Z,1.88
2022-08-05T13:20:40.355Z,2.00
2022-08-05T13:23:08.614Z,1.90
2022-08-05T13:25:51.872Z,2.17
2022-08-05T13:28:24.203Z,2.08
2022-08-05T13:30:54.103Z,1.98
2022-08-05T13:34:21.228Z,1.85
2022-08-05T13:36:09.865Z,2.30
2022-08-05T13:38:38.536Z,1.73
2022-08-05T13:41:10.600Z,1.90
2022-08-05T13:43:44.437Z,1.50
2022-08-05T13:46:16.368Z,1.73
2022-08-05T13:48:58.127Z,1.80
2022-08-05T13:51:40.285Z,1.73
2022-08-05T13:54:12.971Z,2.10
2022-08-05T13:56:44.958Z,1.80
2022-08-05T13:59:20.245Z,1.92
2022-08-05T14:01:57.717Z,2.10
2022-08-05T14:04:50.211Z,1.67
2022-08-05T14:07:26.042Z,1.95
2022-08-05T14:10:11.659Z,1.90
2022-08-05T14:12:40.143Z,2.08
2022-08-05T14:16:06.852Z,2.13
2022-08-05T14:18:01.855Z,2.47
2022-08-05T14:20:34.810Z,2.30
2022-08-05T14:23:02.940Z,2.40
2022-08-05T14:25:30.858Z,2.50
2022-08-05T14:27:58.880Z,2.67
2022-08-05T14:30:28.101Z,2.50
2022-08-05T14:32:57.053Z,2.42
2022-08-05T14:35:36.207Z,2.72
2022-08-05T14:38:32.655Z,2.70
2022-08-05T14:41:06.935Z,2.40
2022-08-05T14:43:51.605Z,2.53
2022-08-05T14:46:28.238Z,3.40
2022-08-05T14:48:57.769Z,2.90
2022-08-05T14:51:31.067Z,3.05
2022-08-05T14:54:06.662Z,2.65
2022-08-05T14:56:47.266Z,3.03
2022-08-05T14:59:15.493Z,3.42
2022-08-05T15:01:48.871Z,3.22
2022-08-05T15:04:17.646Z,3.10
2022-08-05T15:06:51.329Z,2.78
2022-08-05T15:09:52.562Z,2.70
2022-08-05T15:12:09.110Z,2.75
2022-08-05T15:14:42.216Z,2.90
2022-08-05T15:17:46.984Z,3.33
2022-08-05T15:20:08.129Z,2.65
2022-08-05T15:22:39.242Z,2.63
2022-08-05T15:25:13.706Z,2.70
2022-08-05T15:27:43.086Z,3.00
2022-08-05T15:30:20.709Z,2.55
2022-08-05T15:32:50.369Z,3.47
2022-08-05T15:35:18.235Z,3.28
2022-08-05T15:38:33.389Z,3.13
2022-08-05T15:41:00.214Z,3.42
2022-08-05T15:43:27.062Z,3.22
2022-08-05T15:46:00.704Z,2.80
2022-08-05T15:48:29.995Z,3.15
2022-08-05T15:51:01.050Z,3.15
2022-08-05T15:53:38.389Z,3.03
2022-08-05T15:56:18.557Z,3.03
2022-08-05T15:58:47.370Z,3.10
2022-08-05T16:01:17.415Z,3.03
2022-08-05T16:03:48.557Z,3.00
2022-08-05T16:06:20.254Z,2.70
2022-08-05T16:08:50.982Z,3.13
2022-08-05T16:11:20.882Z,2.65
2022-08-05T16:14:07.356Z,3.17
2022-08-05T16:16:36.908Z,2.92
2022-08-05T16:19:05.717Z,3.72
2022-08-05T16:22:00.484Z,3.08
2022-08-05T16:24:41.118Z,2.80
2022-08-05T16:27:16.319Z,2.88
2022-08-05T16:29:50.195Z,2.88
2022-08-05T16:32:28.829Z,2.97
2022-08-05T16:34:57.726Z,2.78
2022-08-05T16:38:16.198Z,2.70
2022-08-05T16:40:26.651Z,3.33
2022-08-05T16:42:57.241Z,4.07
2022-08-05T16:46:07.350Z,3.15
2022-08-05T16:48:25.471Z,3.00
2022-08-05T16:50:56.927Z,2.80
2022-08-05T16:53:32.202Z,3.20
2022-08-05T16:56:02.128Z,3.08
2022-08-05T16:58:30.165Z,4.25
2022-08-05T17:00:58.089Z,2.90
2022-08-05T17:03:27.210Z,2.72
2022-08-05T17:05:59.448Z,3.00
2022-08-05T17:08:33.629Z,2.80
2022-08-05T17:11:17.453Z,3.00
2022-08-05T17:13:45.618Z,2.85
2022-08-05T17:16:29.763Z,2.75
2022-08-05T17:19:01.621Z,2.90
2022-08-05T17:21:35.392Z,3.28
2022-08-05T17:24:19.735Z,3.78
2022-08-05T17:26:54.301Z,3.47
2022-08-05T17:29:39.907Z,3.88
2022-08-05T17:32:11.664Z,4.25
2022-08-05T17:34:47.683Z,5.07
2022-08-05T17:37:41.700Z,5.00
2022-08-05T17:40:10.119Z,5.28
2022-08-05T17:45:20.566Z,5.72
2022-08-05T17:47:53.962Z,5.10
2022-08-05T17:52:58.780Z,5.45
2022-08-05T17:55:34.253Z,5.38
2022-08-05T17:58:11.202Z,4.97
2022-08-05T18:00:45.354Z,4.70
2022-08-05T18:03:39.273Z,5.45
2022-08-05T18:06:06.320Z,5.18
2022-08-05T18:08:44.126Z,5.32
2022-08-05T18:11:24.165Z,5.72
2022-08-05T18:14:06.581Z,6.22
2022-08-05T18:16:35.292Z,6.10
2022-08-05T18:19:22.668Z,6.55
2022-08-05T18:22:07.192Z,7.57
2022-08-05T18:24:37.730Z,7.28
2022-08-05T18:27:18.573Z,8.32
2022-08-05T18:29:54.122Z,7.47
2022-08-05T18:32:28.107Z,7.43
2022-08-05T18:34:57.501Z,7.80
2022-08-05T18:37:34.826Z,8.07
2022-08-05T18:40:31.611Z,7.70
2022-08-05T18:42:57.875Z,8.25
2022-08-05T18:45:41.333Z,8.20
2022-08-05T18:48:11.124Z,7.47
2022-08-05T18:50:57.200Z,7.60
2022-08-05T18:53:32.178Z,7.90
2022-08-05T18:56:02.645Z,7.90
2022-08-05T18:58:40.467Z,7.80
2022-08-05T19:01:18.134Z,7.38
2022-08-05T19:03:55.237Z,7.25
2022-08-05T19:06:37.090Z,7.25
2022-08-05T19:09:12.379Z,6.70
2022-08-05T19:12:00.409Z,6.53
2022-08-05T19:14:37.995Z,6.18
2022-08-05T19:17:17.762Z,6.10
2022-08-05T19:19:48.637Z,5.85
2022-08-05T19:22:17.778Z,6.03
2022-08-05T19:24:54.147Z,5.30
2022-08-05T19:27:24.444Z,6.50
2022-08-05T19:29:58.255Z,5.60
2022-08-05T19:32:27.903Z,5.72
2022-08-05T19:34:56.073Z,6.00
2022-08-05T19:37:29.906Z,5.72
2022-08-05T19:40:12.708Z,5.30
2022-08-05T19:42:43.098Z,6.07
2022-08-05T19:45:33.279Z,6.93
2022-08-05T19:50:34.915Z,10.27
2022-08-05T19:53:09.307Z,11.48
2022-08-05T19:56:15.704Z,11.07
2022-08-05T19:58:29.455Z,9.82
2022-08-05T20:00:58.188Z,10.43
2022-08-05T20:03:38.743Z,9.60
2022-08-05T20:06:11.786Z,11.32
2022-08-05T20:08:47.417Z,9.05
2022-08-05T20:11:18.061Z,10.13
2022-08-05T20:13:58.475Z,9.13
2022-08-05T20:16:35.158Z,8.85
2022-08-05T20:19:05.126Z,9.40
2022-08-05T20:21:33.276Z,10.02
2022-08-05T20:24:01.092Z,10.10
2022-08-05T20:26:29.447Z,10.23
2022-08-05T20:29:00.661Z,9.85
2022-08-05T20:31:42.134Z,9.68
2022-08-05T20:34:18.758Z,10.00
2022-08-05T20:36:47.844Z,10.57
2022-08-05T20:39:16.493Z,10.80
2022-08-05T20:41:45.253Z,10.10
2022-08-05T20:44:18.601Z,9.60
2022-08-05T20:46:57.752Z,9.05
2022-08-05T20:49:27.207Z,10.05
2022-08-05T20:51:55.943Z,9.88
2022-08-05T20:54:43.377Z,10.13
2022-08-05T20:57:15.025Z,9.13
2022-08-05T21:00:19.590Z,8.93
2022-08-05T21:02:53.138Z,7.68
2022-08-05T21:05:22.549Z,7.63
2022-08-05T21:07:51.659Z,6.10
2022-08-05T21:10:20.159Z,5.95
2022-08-05T21:12:58.142Z,5.43
2022-08-05T21:15:37.041Z,4.35
2022-08-05T21:18:05.185Z,3.70
2022-08-05T21:20:34.400Z,3.17
2022-08-05T21:23:03.085Z,3.33
2022-08-05T21:25:33.998Z,2.80
2022-08-05T21:28:02.708Z,2.38
2022-08-05T21:30:31.361Z,2.38
2022-08-05T21:32:59.739Z,2.60
2022-08-05T21:35:43.718Z,2.28
2022-08-05T21:38:19.129Z,2.47
2022-08-05T21:40:46.997Z,2.15
2022-08-05T21:43:17.683Z,2.17
2022-08-05T21:45:57.561Z,2.50
2022-08-05T21:48:28.956Z,2.30
2022-08-05T21:50:59.772Z,2.35
2022-08-05T21:53:28.945Z,1.92
2022-08-05T21:56:05.263Z,2.05
2022-08-05T21:58:42.282Z,2.03
2022-08-05T22:01:10.940Z,2.10
2022-08-05T22:03:53.100Z,1.73
2022-08-05T22:06:39.461Z,2.30
2022-08-05T22:09:13.955Z,1.75
2022-08-05T22:11:43.580Z,1.60
2022-08-05T22:14:33.746Z,1.52
2022-08-05T22:17:06.601Z,1.75
2022-08-05T22:20:00.250Z,1.90
2022-08-05T22:22:28.271Z,1.60
2022-08-05T22:25:21.715Z,1.65
2022-08-05T22:28:09.384Z,1.67
2022-08-05T22:30:44.007Z,1.50
2022-08-05T22:33:56.995Z,1.50
2022-08-05T22:36:09.556Z,1.58
2022-08-05T22:38:38.367Z,1.40
2022-08-05T22:41:11.922Z,1.67
2022-08-05T22:43:42.913Z,1.33
2022-08-05T22:46:13.149Z,1.30
2022-08-05T22:48:41.755Z,1.40
2022-08-05T22:51:16.132Z,1.52
2022-08-05T22:53:54.934Z,1.83
2022-08-05T22:56:30.732Z,1.60
2022-08-05T22:59:03.128Z,1.75
2022-08-05T23:02:03.887Z,1.50
2022-08-05T23:04:20.602Z,1.42
2022-08-05T23:06:48.346Z,1.70
2022-08-05T23:09:52.864Z,1.50
2022-08-05T23:12:06.194Z,1.65
2022-08-05T23:14:33.997Z,1.67
2022-08-05T23:17:34.918Z,1.42
2022-08-05T23:20:10.169Z,1.48
2022-08-05T23:22:47.675Z,1.65
2022-08-05T23:25:51.905Z,1.90
2022-08-05T23:28:07.675Z,1.38
2022-08-05T23:30:40.499Z,1.60
2022-08-05T23:33:16.067Z,1.63
2022-08-05T23:35:50.385Z,1.80
2022-08-05T23:38:19.305Z,1.83
2022-08-05T23:40:49.371Z,1.50
2022-08-05T23:43:25.387Z,1.40
2022-08-05T23:46:21.025Z,1.95
2022-08-05T23:48:59.817Z,1.50
2022-08-05T23:51:53.385Z,1.50
2022-08-05T23:54:25.673Z,1.92
2022-08-05T23:56:55.937Z,1.80
